Time,TemperatureF,DewpointF,PressureIn,WindDirection,WindDirectionDegrees,WindSpeedMPH,WindSpeedGustMPH,Humidity,HourlyPrecipIn,Conditions,Clouds,dailyrainin,SoftwareType,DateUTC
2013-05-17 00:00:00,53.6,19.6,30.24,West,280,0.0,0.0,26,0.00,,SKC,0.00,VWS V14.01,2013-05-17 04:00:00,
2013-05-17 00:20:00,52.7,19.7,30.21,West,280,0.0,0.0,27,0.00,,SKC,0.00,VWS V14.01,2013-05-17 04:20:00,
2013-05-17 00:40:00,51.6,19.6,30.21,West,280,0.0,0.0,28,0.00,,SKC,0.00,VWS V14.01,2013-05-17 04:40:00,
2013-05-17 01:00:00,50.9,19.8,30.21,West,280,0.0,0.0,29,0.00,,SKC,0.00,VWS V14.01,2013-05-17 05:00:00,
2013-05-17 01:20:00,50.2,20.7,30.21,West,280,0.0,0.0,31,0.00,,SKC,0.00,VWS V14.01,2013-05-17 05:20:00,
2013-05-17 01:40:00,49.8,21.9,30.21,West,280,0.0,0.0,33,0.00,,SKC,0.00,VWS V14.01,2013-05-17 05:40:00,
2013-05-17 02:00:00,49.1,23.3,30.21,West,280,0.0,0.0,36,0.00,,SKC,0.00,VWS V14.01,2013-05-17 06:00:00,
2013-05-17 02:20:00,48.9,23.8,30.21,West,280,0.0,0.0,37,0.00,,SKC,0.00,VWS V14.01,2013-05-17 06:20:00,
2013-05-17 02:40:00,48.4,24.0,30.21,West,280,0.0,0.0,38,0.00,,SKC,0.00,VWS V14.01,2013-05-17 06:40:00,
2013-05-17 03:00:00,48.0,24.3,30.21,West,280,0.0,0.0,39,0.00,,SKC,0.00,VWS V14.01,2013-05-17 07:00:00,
2013-05-17 03:20:00,47.8,24.7,30.21,West,280,0.0,0.0,40,0.00,,SKC,0.00,VWS V14.01,2013-05-17 07:20:00,
2013-05-17 03:40:00,47.5,25.5,30.21,West,280,0.0,0.0,42,0.00,,SKC,0.00,VWS V14.01,2013-05-17 07:40:00,
2013-05-17 04:00:00,47.5,26.7,30.21,West,280,0.0,0.0,44,0.00,,SKC,0.00,VWS V14.01,2013-05-17 08:00:00,
2013-05-17 04:20:00,47.8,28.1,30.21,West,280,0.0,0.0,46,0.00,,SKC,0.00,VWS V14.01,2013-05-17 08:20:00,
2013-05-17 04:40:00,48.0,29.3,30.21,West,280,0.0,0.0,48,0.00,,SKC,0.00,VWS V14.01,2013-05-17 08:40:00,
2013-05-17 05:00:00,48.2,29.5,30.21,West,280,0.0,0.0,48,0.00,,SKC,0.00,VWS V14.01,2013-05-17 09:00:00,
2013-05-17 05:20:00,48.6,30.8,30.21,West,280,0.0,0.0,50,0.00,,SKC,0.00,VWS V14.01,2013-05-17 09:20:00,
2013-05-17 05:40:00,49.3,32.4,30.21,West,280,0.0,0.0,52,0.00,,SKC,0.00,VWS V14.01,2013-05-17 09:40:00,
2013-05-17 06:00:00,49.5,33.1,30.21,West,280,0.0,0.0,53,0.00,,SKC,0.00,VWS V14.01,2013-05-17 10:00:00,
2013-05-17 06:20:00,49.3,33.4,30.24,West,280,0.0,0.0,54,0.00,,SKC,0.00,VWS V14.01,2013-05-17 10:20:00,
2013-05-17 06:40:00,49.1,33.7,30.24,NW,315,0.0,0.0,55,0.00,,SKC,0.00,VWS V14.01,2013-05-17 10:40:00,
2013-05-17 07:00:00,49.3,34.7,30.24,NW,315,0.0,0.0,57,0.00,,SKC,0.00,VWS V14.01,2013-05-17 11:00:00,
2013-05-17 07:20:00,49.6,36.3,30.24,NW,315,0.0,0.0,60,0.00,,SKC,0.00,VWS V14.01,2013-05-17 11:20:00,
2013-05-17 07:40:00,50.2,37.3,30.24,NW,315,0.0,0.0,61,0.00,,SKC,0.00,VWS V14.01,2013-05-17 11:40:00,
2013-05-17 08:00:00,53.8,43.5,30.24,NW,315,0.0,0.0,68,0.00,,SKC,0.00,VWS V14.01,2013-05-17 12:00:00,
2013-05-17 08:20:00,56.5,46.8,30.24,NW,315,0.0,0.0,70,0.00,,SKC,0.00,VWS V14.01,2013-05-17 12:20:00,
2013-05-17 08:40:00,62.6,47.6,30.24,SW,230,0.0,3.6,58,0.00,,SKC,0.00,VWS V14.01,2013-05-17 12:40:00,
2013-05-17 09:00:00,65.5,42.4,30.24,WSW,250,0.0,0.0,43,0.00,,SKC,0.00,VWS V14.01,2013-05-17 13:00:00,
2013-05-17 09:20:00,67.8,34.4,30.24,SW,227,0.0,5.8,29,0.00,,SKC,0.00,VWS V14.01,2013-05-17 13:20:00,
2013-05-17 09:40:00,70.9,26.6,30.24,West,278,0.0,5.4,19,0.00,,SKC,0.00,VWS V14.01,2013-05-17 13:40:00,
2013-05-17 10:00:00,72.1,23.5,30.27,SSW,206,4.0,4.0,16,0.00,,SKC,0.00,VWS V14.01,2013-05-17 14:00:00,
2013-05-17 10:20:00,72.3,23.6,30.27,West,278,0.0,4.9,16,0.00,,SKC,0.00,VWS V14.01,2013-05-17 14:20:00,
2013-05-17 10:40:00,70.9,23.9,30.27,WNW,291,0.0,0.0,17,0.00,,SKC,0.00,VWS V14.01,2013-05-17 14:40:00,
2013-05-17 11:00:00,70.3,23.5,30.27,WNW,291,0.0,0.0,17,0.00,,SKC,0.00,VWS V14.01,2013-05-17 15:00:00,
2013-05-17 11:20:00,70.7,23.8,30.27,ESE,105,0.0,4.9,17,0.00,,SKC,0.00,VWS V14.01,2013-05-17 15:20:00,
2013-05-17 11:40:00,72.7,23.9,30.27,East,98,0.0,4.9,16,0.00,,SKC,0.00,VWS V14.01,2013-05-17 15:40:00,
2013-05-17 12:00:00,72.5,23.8,30.27,East,89,3.6,5.4,16,0.00,,SKC,0.00,VWS V14.01,2013-05-17 16:00:00,
2013-05-17 12:20:00,69.6,22.9,30.27,SE,134,0.0,3.6,17,0.00,,SKC,0.00,VWS V14.01,2013-05-17 16:20:00,
2013-05-17 12:40:00,68.9,26.2,30.24,ESE,116,0.0,0.0,20,0.00,,SKC,0.00,VWS V14.01,2013-05-17 16:40:00,
2013-05-17 13:00:00,70.9,26.6,30.27,SSW,204,0.0,4.0,19,0.00,,SKC,0.00,VWS V14.01,2013-05-17 17:00:00,
2013-05-17 13:20:00,71.1,24.1,30.27,SSW,203,4.0,7.6,17,0.00,,SKC,0.00,VWS V14.01,2013-05-17 17:20:00,
2013-05-17 13:40:00,72.5,23.8,30.27,East,97,4.9,4.9,16,0.00,,SKC,0.00,VWS V14.01,2013-05-17 17:40:00,
2013-05-17 14:00:00,73.2,24.4,30.27,ESE,103,8.1,8.1,16,0.00,,SKC,0.00,VWS V14.01,2013-05-17 18:00:00,
2013-05-17 14:20:00,72.5,23.8,30.27,ENE,76,5.4,8.1,16,0.00,,SKC,0.00,VWS V14.01,2013-05-17 18:20:00,
2013-05-17 14:40:00,71.8,23.2,30.27,WSW,252,0.0,5.8,16,0.00,,SKC,0.00,VWS V14.01,2013-05-17 18:40:00,
2013-05-17 15:00:00,72.1,23.5,30.27,NE,36,0.0,0.0,16,0.00,,SKC,0.00,VWS V14.01,2013-05-17 19:00:00,
2013-05-17 15:20:00,71.2,24.2,30.27,ESE,104,3.1,4.0,17,0.00,,SKC,0.00,VWS V14.01,2013-05-17 19:20:00,
2013-05-17 15:40:00,70.7,23.8,30.27,ESE,105,0.0,5.8,17,0.00,,SKC,0.00,VWS V14.01,2013-05-17 19:40:00,
2013-05-17 16:00:00,71.2,24.2,30.24,SSE,152,0.0,5.4,17,0.00,,SKC,0.00,VWS V14.01,2013-05-17 20:00:00,
2013-05-17 16:20:00,72.3,23.6,30.24,East,100,6.3,6.3,16,0.00,,SKC,0.00,VWS V14.01,2013-05-17 20:20:00,
2013-05-17 16:40:00,70.7,23.8,30.24,East,98,0.0,0.0,17,0.00,,SKC,0.00,VWS V14.01,2013-05-17 20:40:00,
2013-05-17 17:00:00,65.7,28.9,30.24,SSW,206,2.2,10.5,25,0.00,,SKC,0.00,VWS V14.01,2013-05-17 21:00:00,
2013-05-17 17:20:00,62.8,34.0,30.27,WNW,285,0.0,2.2,34,0.00,,SKC,0.00,VWS V14.01,2013-05-17 21:20:00,
2013-05-17 17:40:00,62.4,35.8,30.27,WNW,284,0.0,0.0,37,0.04,,SKC,0.04,VWS V14.01,2013-05-17 21:40:00,
2013-05-17 18:00:00,62.1,38.7,30.27,WNW,300,0.0,5.8,42,0.16,,SKC,0.16,VWS V14.01,2013-05-17 22:00:00,
2013-05-17 18:20:00,62.1,42.2,30.27,SSW,205,0.0,5.4,48,0.16,,SKC,0.16,VWS V14.01,2013-05-17 22:20:00,
2013-05-17 18:40:00,62.1,43.2,30.27,SSW,205,0.0,0.0,50,0.16,,SKC,0.16,VWS V14.01,2013-05-17 22:40:00,
2013-05-17 19:00:00,62.2,44.9,30.27,SSW,205,0.0,0.0,53,0.12,,SKC,0.16,VWS V14.01,2013-05-17 23:00:00,
2013-05-17 19:20:00,62.2,46.8,30.27,SSW,205,0.0,0.0,57,0.00,,SKC,0.16,VWS V14.01,2013-05-17 23:20:00,
2013-05-17 19:40:00,62.1,48.0,30.24,SSW,205,0.0,0.0,60,0.00,,SKC,0.16,VWS V14.01,2013-05-17 23:40:00,
2013-05-17 20:00:00,61.7,49.0,30.27,SSW,205,0.0,0.0,63,0.00,,SKC,0.16,VWS V14.01,2013-05-18 00:00:00,
2013-05-17 20:20:00,61.0,49.2,30.27,SSW,205,0.0,0.0,65,0.00,,SKC,0.16,VWS V14.01,2013-05-18 00:20:00,
2013-05-17 20:40:00,60.8,49.8,30.27,SSW,205,0.0,0.0,67,0.00,,SKC,0.16,VWS V14.01,2013-05-18 00:40:00,
2013-05-17 21:00:00,60.8,51.0,30.27,NW,319,0.0,0.0,70,0.00,,SKC,0.16,VWS V14.01,2013-05-18 01:00:00,
2013-05-17 21:20:00,60.6,51.2,30.27,NW,319,0.0,0.0,71,0.04,,SKC,0.20,VWS V14.01,2013-05-18 01:20:00,
2013-05-17 21:40:00,60.6,51.9,30.27,NW,319,0.0,0.0,73,0.08,,SKC,0.24,VWS V14.01,2013-05-18 01:40:00,
2013-05-17 22:00:00,60.6,52.3,30.27,NW,319,0.0,0.0,74,0.08,,SKC,0.24,VWS V14.01,2013-05-18 02:00:00,
2013-05-17 22:20:00,60.3,52.3,30.27,NW,319,0.0,0.0,75,0.08,,SKC,0.24,VWS V14.01,2013-05-18 02:20:00,
2013-05-17 22:40:00,59.9,52.3,30.29,NW,319,0.0,0.0,76,0.04,,SKC,0.24,VWS V14.01,2013-05-18 02:40:00,
2013-05-17 23:00:00,59.2,52.0,30.29,NW,319,0.0,0.0,77,0.00,,SKC,0.24,VWS V14.01,2013-05-18 03:00:00,
2013-05-17 23:20:00,58.8,52.0,30.27,NW,319,0.0,0.0,78,0.00,,SKC,0.24,VWS V14.01,2013-05-18 03:20:00,
2013-05-17 23:40:00,58.5,52.3,30.27,NW,319,0.0,0.0,80,0.00,,SKC,0.24,VWS V14.01,2013-05-18 03:40:00,